Terminal Aerodrome Forecast
Issued by NWS Mt. Holly, NJ

Current Version | Previous Version | Text Only | Print | Product List | Glossary On
Versions: 1 2 3 4 5 6 7 8 9 10 11 12 13 14 15 16 17 18 19
000
FTUS41 KPHI 291122
TAFACY
TAF
KACY 291122Z 2912/3012 26004KT P6SM SKC
      TEMPO 2912/2913 6SM HZ
     FM291700 19010KT P6SM SCT060
     FM300000 20007KT P6SM FEW250
     FM300800 19005KT P6SM VCSH BKN060=

USA.gov is the U.S. government's official web portal to all federal, state and local government web resources and services.